Terminal Aerodrome Forecast
Issued by NWS Greer, SC

Home | Current Version | Previous Version | Text Only | Print | Product List | Glossary On
Versions: 1 2 3 4 5 6 7 8 9 10 11 12 13 14 15 16 17 18 19 20 21 22 23 24 25 26 27 28 29 30 31 32 33 34 35 36 37 38 39
000
FTUS42 KGSP 202325
TAFCLT
TAF
KCLT 202325Z 2100/2206 VRB04KT 6SM -SHRA SCT015 BKN025 OVC040
     FM210100 23004KT 6SM BR VCSH SCT035 OVC100
     FM210400 23003KT P6SM FEW040 BKN120
     FM211000 22002KT 6SM BR BKN015
     FM211600 21007KT P6SM SCT045 BKN200 PROB30 2117/2123 4SM -TSRA
      BKN035CB
     FM220200 16005KT P6SM BKN050=

USA.gov is the U.S. government's official web portal to all federal, state and local government web resources and services.